sensor_id;sensor_type;location;lat;lon;timestamp;P1;durP1;ratioP1;P2;durP2;ratioP2
1955;SDS011;978;48.314;11.562;2022-08-20T00:00:23;9.20;;;1.20;;
1955;SDS011;978;48.314;11.562;2022-08-20T00:02:54;10.00;;;1.97;;
1955;SDS011;978;48.314;11.562;2022-08-20T00:05:25;9.87;;;1.43;;
1955;SDS011;978;48.314;11.562;2022-08-20T00:07:54;9.43;;;1.40;;
1955;SDS011;978;48.314;11.562;2022-08-20T00:10:21;9.27;;;1.30;;
1955;SDS011;978;48.314;11.562;2022-08-20T00:12:48;9.20;;;1.20;;
1955;SDS011;978;48.314;11.562;2022-08-20T00:15:15;10.00;;;1.40;;
1955;SDS011;978;48.314;11.562;2022-08-20T00:17:45;9.87;;;1.80;;
1955;SDS011;978;48.314;11.562;2022-08-20T00:20:16;9.60;;;1.10;;
1955;SDS011;978;48.314;11.562;2022-08-20T00:22:45;9.70;;;1.87;;
1955;SDS011;978;48.314;11.562;2022-08-20T00:25:12;9.60;;;1.30;;
1955;SDS011;978;48.314;11.562;2022-08-20T00:27:41;9.30;;;1.13;;
1955;SDS011;978;48.314;11.562;2022-08-20T00:30:09;9.70;;;1.20;;
1955;SDS011;978;48.314;11.562;2022-08-20T00:32:42;9.60;;;1.20;;
1955;SDS011;978;48.314;11.562;2022-08-20T00:35:09;13.73;;;1.60;;
1955;SDS011;978;48.314;11.562;2022-08-20T00:37:39;9.73;;;1.60;;
1955;SDS011;978;48.314;11.562;2022-08-20T00:40:06;9.17;;;1.10;;
1955;SDS011;978;48.314;11.562;2022-08-20T00:42:39;10.00;;;1.30;;
1955;SDS011;978;48.314;11.562;2022-08-20T00:45:09;9.60;;;1.30;;
1955;SDS011;978;48.314;11.562;2022-08-20T00:47:38;9.87;;;1.30;;
1955;SDS011;978;48.314;11.562;2022-08-20T00:50:07;9.70;;;1.27;;
1955;SDS011;978;48.314;11.562;2022-08-20T00:52:36;9.43;;;1.20;;
1955;SDS011;978;48.314;11.562;2022-08-20T00:55:07;9.90;;;1.57;;
1955;SDS011;978;48.314;11.562;2022-08-20T00:57:36;9.50;;;1.50;;
1955;SDS011;978;48.314;11.562;2022-08-20T01:00:08;9.60;;;1.03;;
1955;SDS011;978;48.314;11.562;2022-08-20T01:02:39;9.90;;;1.30;;
1955;SDS011;978;48.314;11.562;2022-08-20T01:05:07;9.50;;;1.70;;
1955;SDS011;978;48.314;11.562;2022-08-20T01:07:36;9.60;;;1.27;;
1955;SDS011;978;48.314;11.562;2022-08-20T01:10:06;10.33;;;2.03;;
1955;SDS011;978;48.314;11.562;2022-08-20T01:12:36;9.70;;;1.20;;
1955;SDS011;978;48.314;11.562;2022-08-20T01:15:06;9.67;;;1.30;;
1955;SDS011;978;48.314;11.562;2022-08-20T01:17:40;9.97;;;1.87;;
1955;SDS011;978;48.314;11.562;2022-08-20T01:20:15;9.57;;;1.10;;
1955;SDS011;978;48.314;11.562;2022-08-20T01:22:49;9.40;;;1.13;;
1955;SDS011;978;48.314;11.562;2022-08-20T01:25:44;9.93;;;1.83;;
1955;SDS011;978;48.314;11.562;2022-08-20T01:28:15;9.87;;;1.20;;
1955;SDS011;978;48.314;11.562;2022-08-20T01:30:45;9.90;;;1.30;;
1955;SDS011;978;48.314;11.562;2022-08-20T01:33:13;9.93;;;1.70;;
1955;SDS011;978;48.314;11.562;2022-08-20T01:35:43;9.60;;;1.50;;
1955;SDS011;978;48.314;11.562;2022-08-20T01:38:11;9.70;;;1.40;;
1955;SDS011;978;48.314;11.562;2022-08-20T01:40:56;9.40;;;1.20;;
1955;SDS011;978;48.314;11.562;2022-08-20T01:43:44;9.63;;;1.17;;
1955;SDS011;978;48.314;11.562;2022-08-20T01:46:11;9.80;;;1.33;;
1955;SDS011;978;48.314;11.562;2022-08-20T01:48:40;10.03;;;1.30;;
1955;SDS011;978;48.314;11.562;2022-08-20T01:51:11;10.30;;;1.40;;
1955;SDS011;978;48.314;11.562;2022-08-20T01:53:43;9.63;;;1.33;;
1955;SDS011;978;48.314;11.562;2022-08-20T01:56:16;9.37;;;1.30;;
1955;SDS011;978;48.314;11.562;2022-08-20T01:58:46;9.90;;;1.77;;
1955;SDS011;978;48.314;11.562;2022-08-20T02:01:19;9.30;;;1.13;;
1955;SDS011;978;48.314;11.562;2022-08-20T02:03:48;9.50;;;1.23;;
1955;SDS011;978;48.314;11.562;2022-08-20T02:06:17;9.30;;;1.40;;
1955;SDS011;978;48.314;11.562;2022-08-20T02:08:45;9.63;;;1.20;;
1955;SDS011;978;48.314;11.562;2022-08-20T02:11:13;9.53;;;1.30;;
1955;SDS011;978;48.314;11.562;2022-08-20T02:13:41;9.10;;;1.30;;
1955;SDS011;978;48.314;11.562;2022-08-20T02:16:09;10.23;;;1.30;;
1955;SDS011;978;48.314;11.562;2022-08-20T02:18:36;9.57;;;1.10;;
1955;SDS011;978;48.314;11.562;2022-08-20T02:21:05;9.57;;;1.60;;
1955;SDS011;978;48.314;11.562;2022-08-20T02:23:32;9.40;;;1.20;;
1955;SDS011;978;48.314;11.562;2022-08-20T02:25:58;9.20;;;1.17;;
1955;SDS011;978;48.314;11.562;2022-08-20T02:28:27;9.33;;;1.10;;
1955;SDS011;978;48.314;11.562;2022-08-20T02:30:54;9.27;;;1.23;;
1955;SDS011;978;48.314;11.562;2022-08-20T02:33:21;9.80;;;1.30;;
1955;SDS011;978;48.314;11.562;2022-08-20T02:35:49;9.60;;;1.43;;
1955;SDS011;978;48.314;11.562;2022-08-20T02:38:16;9.20;;;1.53;;
1955;SDS011;978;48.314;11.562;2022-08-20T02:40:44;9.73;;;1.47;;
1955;SDS011;978;48.314;11.562;2022-08-20T02:43:14;9.40;;;1.20;;
1955;SDS011;978;48.314;11.562;2022-08-20T02:45:49;9.17;;;1.07;;
1955;SDS011;978;48.314;11.562;2022-08-20T02:48:18;9.43;;;1.10;;
1955;SDS011;978;48.314;11.562;2022-08-20T02:50:49;9.60;;;1.60;;
1955;SDS011;978;48.314;11.562;2022-08-20T02:53:19;10.70;;;1.83;;
1955;SDS011;978;48.314;11.562;2022-08-20T02:55:48;9.27;;;1.13;;
1955;SDS011;978;48.314;11.562;2022-08-20T02:58:17;9.50;;;1.60;;
1955;SDS011;978;48.314;11.562;2022-08-20T03:00:46;9.50;;;1.57;;
1955;SDS011;978;48.314;11.562;2022-08-20T03:03:14;9.17;;;1.30;;
1955;SDS011;978;48.314;11.562;2022-08-20T03:05:47;10.13;;;1.57;;
1955;SDS011;978;48.314;11.562;2022-08-20T03:08:17;9.50;;;1.50;;
1955;SDS011;978;48.314;11.562;2022-08-20T03:10:47;9.20;;;1.10;;
1955;SDS011;978;48.314;11.562;2022-08-20T03:13:17;9.27;;;1.30;;
1955;SDS011;978;48.314;11.562;2022-08-20T03:15:48;9.37;;;1.73;;
1955;SDS011;978;48.314;11.562;2022-08-20T03:18:19;9.90;;;1.53;;
1955;SDS011;978;48.314;11.562;2022-08-20T03:20:49;9.47;;;1.17;;
1955;SDS011;978;48.314;11.562;2022-08-20T03:23:18;9.10;;;1.20;;
1955;SDS011;978;48.314;11.562;2022-08-20T03:25:46;9.70;;;1.40;;
1955;SDS011;978;48.314;11.562;2022-08-20T03:28:15;9.67;;;1.10;;
1955;SDS011;978;48.314;11.562;2022-08-20T03:30:44;9.57;;;1.70;;
1955;SDS011;978;48.314;11.562;2022-08-20T03:33:14;9.60;;;1.27;;
1955;SDS011;978;48.314;11.562;2022-08-20T03:35:41;9.40;;;1.30;;
1955;SDS011;978;48.314;11.562;2022-08-20T03:38:08;9.47;;;1.50;;
1955;SDS011;978;48.314;11.562;2022-08-20T03:40:39;9.53;;;1.30;;
1955;SDS011;978;48.314;11.562;2022-08-20T03:43:07;9.47;;;1.17;;
1955;SDS011;978;48.314;11.562;2022-08-20T03:45:35;9.47;;;1.20;;
1955;SDS011;978;48.314;11.562;2022-08-20T03:48:04;9.40;;;1.40;;
1955;SDS011;978;48.314;11.562;2022-08-20T03:50:33;9.70;;;1.20;;
1955;SDS011;978;48.314;11.562;2022-08-20T03:53:00;9.60;;;1.10;;
1955;SDS011;978;48.314;11.562;2022-08-20T03:55:29;9.77;;;1.50;;
1955;SDS011;978;48.314;11.562;2022-08-20T03:57:58;10.37;;;1.20;;
1955;SDS011;978;48.314;11.562;2022-08-20T04:00:27;9.50;;;1.20;;
1955;SDS011;978;48.314;11.562;2022-08-20T04:02:56;9.50;;;1.27;;
1955;SDS011;978;48.314;11.562;2022-08-20T04:05:24;9.90;;;1.30;;
1955;SDS011;978;48.314;11.562;2022-08-20T04:07:54;9.43;;;1.13;;
1955;SDS011;978;48.314;11.562;2022-08-20T04:10:23;9.50;;;1.07;;
1955;SDS011;978;48.314;11.562;2022-08-20T04:12:52;9.40;;;1.40;;
1955;SDS011;978;48.314;11.562;2022-08-20T04:15:20;9.63;;;1.30;;
1955;SDS011;978;48.314;11.562;2022-08-20T04:17:48;9.23;;;1.27;;
1955;SDS011;978;48.314;11.562;2022-08-20T04:20:19;9.63;;;1.60;;
1955;SDS011;978;48.314;11.562;2022-08-20T04:22:49;9.37;;;1.00;;
1955;SDS011;978;48.314;11.562;2022-08-20T04:25:19;9.37;;;1.20;;
1955;SDS011;978;48.314;11.562;2022-08-20T04:27:47;9.13;;;1.20;;
1955;SDS011;978;48.314;11.562;2022-08-20T04:30:16;9.70;;;1.60;;
1955;SDS011;978;48.314;11.562;2022-08-20T04:32:46;9.37;;;1.17;;
1955;SDS011;978;48.314;11.562;2022-08-20T04:35:17;9.90;;;1.33;;
1955;SDS011;978;48.314;11.562;2022-08-20T04:37:55;9.83;;;2.17;;
1955;SDS011;978;48.314;11.562;2022-08-20T04:40:26;9.37;;;1.10;;
1955;SDS011;978;48.314;11.562;2022-08-20T04:43:12;9.70;;;1.63;;
1955;SDS011;978;48.314;11.562;2022-08-20T04:45:39;9.17;;;1.13;;
1955;SDS011;978;48.314;11.562;2022-08-20T04:48:06;9.27;;;1.13;;
1955;SDS011;978;48.314;11.562;2022-08-20T04:50:33;9.50;;;1.50;;
1955;SDS011;978;48.314;11.562;2022-08-20T04:53:01;9.70;;;1.30;;
1955;SDS011;978;48.314;11.562;2022-08-20T04:55:31;9.80;;;1.27;;
1955;SDS011;978;48.314;11.562;2022-08-20T04:58:01;9.27;;;1.13;;
1955;SDS011;978;48.314;11.562;2022-08-20T05:00:29;9.27;;;1.00;;
1955;SDS011;978;48.314;11.562;2022-08-20T05:02:56;9.00;;;1.13;;
1955;SDS011;978;48.314;11.562;2022-08-20T05:05:24;9.20;;;1.10;;
1955;SDS011;978;48.314;11.562;2022-08-20T05:07:53;9.60;;;1.17;;
1955;SDS011;978;48.314;11.562;2022-08-20T05:10:23;9.30;;;1.20;;
1955;SDS011;978;48.314;11.562;2022-08-20T05:12:53;9.50;;;1.30;;
1955;SDS011;978;48.314;11.562;2022-08-20T05:15:21;9.20;;;1.17;;
1955;SDS011;978;48.314;11.562;2022-08-20T05:17:53;9.50;;;1.20;;
1955;SDS011;978;48.314;11.562;2022-08-20T05:20:22;10.10;;;1.30;;
1955;SDS011;978;48.314;11.562;2022-08-20T05:22:50;9.80;;;1.80;;
1955;SDS011;978;48.314;11.562;2022-08-20T05:25:21;9.50;;;1.00;;
1955;SDS011;978;48.314;11.562;2022-08-20T05:27:49;9.70;;;1.50;;
1955;SDS011;978;48.314;11.562;2022-08-20T05:30:26;9.80;;;1.10;;
1955;SDS011;978;48.314;11.562;2022-08-20T05:32:57;9.43;;;1.10;;
1955;SDS011;978;48.314;11.562;2022-08-20T05:35:24;9.60;;;1.23;;
1955;SDS011;978;48.314;11.562;2022-08-20T05:37:54;9.33;;;1.30;;
1955;SDS011;978;48.314;11.562;2022-08-20T05:40:22;9.40;;;1.30;;
1955;SDS011;978;48.314;11.562;2022-08-20T05:42:50;9.30;;;1.20;;
1955;SDS011;978;48.314;11.562;2022-08-20T05:45:19;9.37;;;1.00;;
1955;SDS011;978;48.314;11.562;2022-08-20T05:47:46;9.30;;;1.60;;
1955;SDS011;978;48.314;11.562;2022-08-20T05:50:16;9.97;;;1.70;;
1955;SDS011;978;48.314;11.562;2022-08-20T05:52:43;9.67;;;1.10;;
1955;SDS011;978;48.314;11.562;2022-08-20T05:55:11;10.00;;;1.70;;
1955;SDS011;978;48.314;11.562;2022-08-20T05:57:38;9.47;;;1.30;;
1955;SDS011;978;48.314;11.562;2022-08-20T06:00:07;9.50;;;1.00;;
1955;SDS011;978;48.314;11.562;2022-08-20T06:02:37;9.50;;;1.40;;
1955;SDS011;978;48.314;11.562;2022-08-20T06:05:23;9.23;;;1.10;;
1955;SDS011;978;48.314;11.562;2022-08-20T06:07:51;10.03;;;1.60;;
1955;SDS011;978;48.314;11.562;2022-08-20T06:10:18;9.07;;;1.07;;
1955;SDS011;978;48.314;11.562;2022-08-20T06:12:46;9.40;;;1.20;;
1955;SDS011;978;48.314;11.562;2022-08-20T06:15:12;9.60;;;1.20;;
1955;SDS011;978;48.314;11.562;2022-08-20T06:17:40;9.50;;;1.07;;
1955;SDS011;978;48.314;11.562;2022-08-20T06:20:08;9.17;;;1.17;;
1955;SDS011;978;48.314;11.562;2022-08-20T06:22:35;9.40;;;1.40;;
1955;SDS011;978;48.314;11.562;2022-08-20T06:25:03;9.27;;;1.20;;
1955;SDS011;978;48.314;11.562;2022-08-20T06:27:31;9.33;;;0.93;;
1955;SDS011;978;48.314;11.562;2022-08-20T06:29:59;9.30;;;1.10;;
1955;SDS011;978;48.314;11.562;2022-08-20T06:32:26;9.50;;;1.00;;
1955;SDS011;978;48.314;11.562;2022-08-20T06:34:59;9.23;;;1.20;;
1955;SDS011;978;48.314;11.562;2022-08-20T06:37:27;9.13;;;1.10;;
1955;SDS011;978;48.314;11.562;2022-08-20T06:39:58;9.47;;;1.40;;
1955;SDS011;978;48.314;11.562;2022-08-20T06:42:26;9.60;;;1.10;;
1955;SDS011;978;48.314;11.562;2022-08-20T06:44:55;9.23;;;1.10;;
1955;SDS011;978;48.314;11.562;2022-08-20T06:47:24;9.20;;;1.10;;
1955;SDS011;978;48.314;11.562;2022-08-20T06:49:51;9.37;;;1.10;;
1955;SDS011;978;48.314;11.562;2022-08-20T06:52:20;10.00;;;1.23;;
1955;SDS011;978;48.314;11.562;2022-08-20T06:54:47;12.20;;;1.70;;
1955;SDS011;978;48.314;11.562;2022-08-20T06:57:14;9.27;;;1.17;;
1955;SDS011;978;48.314;11.562;2022-08-20T06:59:41;9.27;;;0.97;;
1955;SDS011;978;48.314;11.562;2022-08-20T07:02:08;9.10;;;1.13;;
1955;SDS011;978;48.314;11.562;2022-08-20T07:04:34;10.07;;;1.40;;
1955;SDS011;978;48.314;11.562;2022-08-20T07:07:02;9.50;;;1.10;;
1955;SDS011;978;48.314;11.562;2022-08-20T07:09:31;9.37;;;1.30;;
1955;SDS011;978;48.314;11.562;2022-08-20T07:11:59;9.30;;;1.30;;
1955;SDS011;978;48.314;11.562;2022-08-20T07:14:27;9.27;;;1.10;;
1955;SDS011;978;48.314;11.562;2022-08-20T07:16:55;9.30;;;1.00;;
1955;SDS011;978;48.314;11.562;2022-08-20T07:19:21;9.30;;;1.00;;
1955;SDS011;978;48.314;11.562;2022-08-20T07:21:50;9.20;;;1.10;;
1955;SDS011;978;48.314;11.562;2022-08-20T07:24:17;9.80;;;1.47;;
1955;SDS011;978;48.314;11.562;2022-08-20T07:26:45;9.30;;;1.30;;
1955;SDS011;978;48.314;11.562;2022-08-20T07:29:12;9.37;;;1.17;;
1955;SDS011;978;48.314;11.562;2022-08-20T07:31:39;8.93;;;1.20;;
1955;SDS011;978;48.314;11.562;2022-08-20T07:34:23;9.60;;;1.17;;
1955;SDS011;978;48.314;11.562;2022-08-20T07:36:51;9.40;;;1.53;;
1955;SDS011;978;48.314;11.562;2022-08-20T07:39:18;9.67;;;1.40;;
1955;SDS011;978;48.314;11.562;2022-08-20T07:41:46;9.70;;;1.40;;
1955;SDS011;978;48.314;11.562;2022-08-20T07:44:28;9.50;;;1.30;;
1955;SDS011;978;48.314;11.562;2022-08-20T07:46:57;10.67;;;2.37;;
1955;SDS011;978;48.314;11.562;2022-08-20T07:49:24;10.23;;;1.90;;
1955;SDS011;978;48.314;11.562;2022-08-20T07:51:52;9.63;;;1.40;;
1955;SDS011;978;48.314;11.562;2022-08-20T07:54:18;9.50;;;1.30;;
1955;SDS011;978;48.314;11.562;2022-08-20T07:56:46;9.67;;;1.40;;
1955;SDS011;978;48.314;11.562;2022-08-20T07:59:13;10.00;;;1.70;;
1955;SDS011;978;48.314;11.562;2022-08-20T08:01:40;10.10;;;1.43;;
1955;SDS011;978;48.314;11.562;2022-08-20T08:04:07;9.60;;;1.47;;
1955;SDS011;978;48.314;11.562;2022-08-20T08:06:35;9.57;;;1.57;;
1955;SDS011;978;48.314;11.562;2022-08-20T08:09:04;9.67;;;1.40;;
1955;SDS011;978;48.314;11.562;2022-08-20T08:11:35;9.97;;;1.63;;
1955;SDS011;978;48.314;11.562;2022-08-20T08:14:06;10.10;;;1.40;;
1955;SDS011;978;48.314;11.562;2022-08-20T08:16:37;9.90;;;1.60;;
1955;SDS011;978;48.314;11.562;2022-08-20T08:19:06;10.67;;;1.50;;
1955;SDS011;978;48.314;11.562;2022-08-20T08:21:37;9.77;;;1.40;;
1955;SDS011;978;48.314;11.562;2022-08-20T08:24:05;10.03;;;1.23;;
1955;SDS011;978;48.314;11.562;2022-08-20T08:26:33;9.87;;;1.30;;
1955;SDS011;978;48.314;11.562;2022-08-20T08:29:03;10.43;;;2.17;;
1955;SDS011;978;48.314;11.562;2022-08-20T08:31:34;9.93;;;1.30;;
1955;SDS011;978;48.314;11.562;2022-08-20T08:34:02;10.33;;;1.63;;
1955;SDS011;978;48.314;11.562;2022-08-20T08:36:30;10.33;;;1.53;;
1955;SDS011;978;48.314;11.562;2022-08-20T08:38:57;9.80;;;1.40;;
1955;SDS011;978;48.314;11.562;2022-08-20T08:41:27;9.87;;;1.40;;
1955;SDS011;978;48.314;11.562;2022-08-20T08:44:00;9.67;;;1.40;;
1955;SDS011;978;48.314;11.562;2022-08-20T08:46:37;10.80;;;1.70;;
1955;SDS011;978;48.314;11.562;2022-08-20T08:49:05;10.20;;;1.20;;
1955;SDS011;978;48.314;11.562;2022-08-20T08:51:38;10.70;;;1.70;;
1955;SDS011;978;48.314;11.562;2022-08-20T08:54:08;9.93;;;1.57;;
1955;SDS011;978;48.314;11.562;2022-08-20T08:56:41;10.30;;;1.60;;
1955;SDS011;978;48.314;11.562;2022-08-20T08:59:08;9.93;;;1.30;;
1955;SDS011;978;48.314;11.562;2022-08-20T09:01:40;9.90;;;1.50;;
1955;SDS011;978;48.314;11.562;2022-08-20T09:04:12;9.77;;;1.30;;
1955;SDS011;978;48.314;11.562;2022-08-20T09:06:41;10.33;;;1.30;;
1955;SDS011;978;48.314;11.562;2022-08-20T09:09:14;14.33;;;2.03;;
1955;SDS011;978;48.314;11.562;2022-08-20T09:11:46;10.20;;;1.30;;
1955;SDS011;978;48.314;11.562;2022-08-20T09:14:14;11.10;;;2.10;;
1955;SDS011;978;48.314;11.562;2022-08-20T09:16:42;10.20;;;1.33;;
1955;SDS011;978;48.314;11.562;2022-08-20T09:19:09;9.97;;;1.50;;
1955;SDS011;978;48.314;11.562;2022-08-20T09:21:37;10.40;;;1.40;;
1955;SDS011;978;48.314;11.562;2022-08-20T09:24:07;10.10;;;1.20;;
1955;SDS011;978;48.314;11.562;2022-08-20T09:26:35;10.50;;;1.40;;
1955;SDS011;978;48.314;11.562;2022-08-20T09:29:03;10.70;;;1.93;;
1955;SDS011;978;48.314;11.562;2022-08-20T09:31:31;10.30;;;1.67;;
1955;SDS011;978;48.314;11.562;2022-08-20T09:33:59;10.37;;;1.20;;
1955;SDS011;978;48.314;11.562;2022-08-20T09:36:26;10.27;;;1.30;;
1955;SDS011;978;48.314;11.562;2022-08-20T09:38:53;10.20;;;1.50;;
1955;SDS011;978;48.314;11.562;2022-08-20T09:41:20;10.80;;;1.70;;
1955;SDS011;978;48.314;11.562;2022-08-20T09:43:47;10.57;;;1.53;;
1955;SDS011;978;48.314;11.562;2022-08-20T09:46:13;10.43;;;1.50;;
1955;SDS011;978;48.314;11.562;2022-08-20T09:48:41;10.43;;;1.57;;
1955;SDS011;978;48.314;11.562;2022-08-20T09:51:09;10.07;;;1.70;;
1955;SDS011;978;48.314;11.562;2022-08-20T09:53:38;10.07;;;1.60;;
1955;SDS011;978;48.314;11.562;2022-08-20T09:56:05;10.10;;;1.60;;
1955;SDS011;978;48.314;11.562;2022-08-20T09:58:33;10.07;;;1.40;;
1955;SDS011;978;48.314;11.562;2022-08-20T10:01:06;10.90;;;1.47;;
1955;SDS011;978;48.314;11.562;2022-08-20T10:03:35;10.43;;;1.27;;
1955;SDS011;978;48.314;11.562;2022-08-20T10:06:04;10.03;;;1.40;;
1955;SDS011;978;48.314;11.562;2022-08-20T10:08:35;10.30;;;1.80;;
1955;SDS011;978;48.314;11.562;2022-08-20T10:11:01;10.83;;;1.83;;
1955;SDS011;978;48.314;11.562;2022-08-20T10:13:28;10.80;;;1.50;;
1955;SDS011;978;48.314;11.562;2022-08-20T10:15:55;11.10;;;2.03;;
1955;SDS011;978;48.314;11.562;2022-08-20T10:18:22;11.20;;;1.50;;
1955;SDS011;978;48.314;11.562;2022-08-20T10:20:49;10.43;;;1.47;;
1955;SDS011;978;48.314;11.562;2022-08-20T10:23:15;10.83;;;1.57;;
1955;SDS011;978;48.314;11.562;2022-08-20T10:25:45;11.20;;;2.53;;
1955;SDS011;978;48.314;11.562;2022-08-20T10:28:11;10.90;;;2.13;;
1955;SDS011;978;48.314;11.562;2022-08-20T10:30:40;10.30;;;1.70;;
1955;SDS011;978;48.314;11.562;2022-08-20T10:33:07;11.13;;;1.70;;
1955;SDS011;978;48.314;11.562;2022-08-20T10:35:35;10.67;;;1.43;;
1955;SDS011;978;48.314;11.562;2022-08-20T10:38:02;10.67;;;1.40;;
1955;SDS011;978;48.314;11.562;2022-08-20T10:40:31;10.50;;;1.60;;
1955;SDS011;978;48.314;11.562;2022-08-20T10:42:59;10.77;;;1.80;;
1955;SDS011;978;48.314;11.562;2022-08-20T10:45:27;10.60;;;1.50;;
1955;SDS011;978;48.314;11.562;2022-08-20T10:47:53;10.83;;;1.77;;
1955;SDS011;978;48.314;11.562;2022-08-20T10:50:23;10.50;;;1.40;;
1955;SDS011;978;48.314;11.562;2022-08-20T10:52:50;10.60;;;1.50;;
1955;SDS011;978;48.314;11.562;2022-08-20T10:55:17;10.50;;;1.70;;
1955;SDS011;978;48.314;11.562;2022-08-20T10:57:44;10.60;;;1.43;;
1955;SDS011;978;48.314;11.562;2022-08-20T11:00:13;11.00;;;1.37;;
1955;SDS011;978;48.314;11.562;2022-08-20T11:02:42;10.10;;;1.40;;
1955;SDS011;978;48.314;11.562;2022-08-20T11:05:10;10.70;;;1.50;;
1955;SDS011;978;48.314;11.562;2022-08-20T11:07:39;10.40;;;1.90;;
1955;SDS011;978;48.314;11.562;2022-08-20T11:10:08;10.60;;;1.60;;
1955;SDS011;978;48.314;11.562;2022-08-20T11:12:39;10.63;;;2.00;;
1955;SDS011;978;48.314;11.562;2022-08-20T11:15:09;11.00;;;1.80;;
1955;SDS011;978;48.314;11.562;2022-08-20T11:17:40;10.70;;;2.07;;
1955;SDS011;978;48.314;11.562;2022-08-20T11:20:13;10.73;;;1.57;;
1955;SDS011;978;48.314;11.562;2022-08-20T11:22:43;11.00;;;1.87;;
1955;SDS011;978;48.314;11.562;2022-08-20T11:25:09;10.83;;;2.00;;
1955;SDS011;978;48.314;11.562;2022-08-20T11:27:37;10.83;;;1.67;;
1955;SDS011;978;48.314;11.562;2022-08-20T11:30:07;10.97;;;1.30;;
1955;SDS011;978;48.314;11.562;2022-08-20T11:32:37;10.80;;;1.60;;
1955;SDS011;978;48.314;11.562;2022-08-20T11:35:06;10.80;;;1.70;;
1955;SDS011;978;48.314;11.562;2022-08-20T11:37:36;10.70;;;1.63;;
1955;SDS011;978;48.314;11.562;2022-08-20T11:40:03;10.60;;;1.90;;
1955;SDS011;978;48.314;11.562;2022-08-20T11:42:32;10.70;;;2.07;;
1955;SDS011;978;48.314;11.562;2022-08-20T11:44:59;10.77;;;1.73;;
1955;SDS011;978;48.314;11.562;2022-08-20T11:47:26;10.70;;;1.90;;
1955;SDS011;978;48.314;11.562;2022-08-20T11:49:58;10.40;;;1.70;;
1955;SDS011;978;48.314;11.562;2022-08-20T11:52:27;10.37;;;1.30;;
1955;SDS011;978;48.314;11.562;2022-08-20T11:54:55;10.97;;;1.70;;
1955;SDS011;978;48.314;11.562;2022-08-20T11:57:22;11.13;;;1.60;;
1955;SDS011;978;48.314;11.562;2022-08-20T11:59:52;10.80;;;1.80;;
1955;SDS011;978;48.314;11.562;2022-08-20T12:02:20;11.17;;;1.93;;
1955;SDS011;978;48.314;11.562;2022-08-20T12:04:49;11.23;;;1.60;;
1955;SDS011;978;48.314;11.562;2022-08-20T12:07:19;11.20;;;1.70;;
1955;SDS011;978;48.314;11.562;2022-08-20T12:09:49;11.70;;;2.00;;
1955;SDS011;978;48.314;11.562;2022-08-20T12:12:18;11.10;;;1.60;;
1955;SDS011;978;48.314;11.562;2022-08-20T12:14:49;11.10;;;2.13;;
1955;SDS011;978;48.314;11.562;2022-08-20T12:17:18;10.57;;;1.43;;
1955;SDS011;978;48.314;11.562;2022-08-20T12:19:49;11.67;;;2.10;;
1955;SDS011;978;48.314;11.562;2022-08-20T12:22:20;12.00;;;2.47;;
1955;SDS011;978;48.314;11.562;2022-08-20T12:24:48;11.00;;;2.27;;
1955;SDS011;978;48.314;11.562;2022-08-20T12:27:16;10.80;;;1.87;;
1955;SDS011;978;48.314;11.562;2022-08-20T12:29:46;10.80;;;1.60;;
1955;SDS011;978;48.314;11.562;2022-08-20T12:32:17;11.27;;;1.70;;
1955;SDS011;978;48.314;11.562;2022-08-20T12:34:46;11.70;;;2.20;;
1955;SDS011;978;48.314;11.562;2022-08-20T12:37:15;11.80;;;2.30;;
1955;SDS011;978;48.314;11.562;2022-08-20T12:39:47;11.87;;;2.17;;
1955;SDS011;978;48.314;11.562;2022-08-20T12:42:17;11.00;;;1.80;;
1955;SDS011;978;48.314;11.562;2022-08-20T12:44:47;11.00;;;1.70;;
1955;SDS011;978;48.314;11.562;2022-08-20T12:47:16;11.93;;;2.20;;
1955;SDS011;978;48.314;11.562;2022-08-20T12:49:46;11.23;;;2.07;;
1955;SDS011;978;48.314;11.562;2022-08-20T12:52:18;11.40;;;1.77;;
1955;SDS011;978;48.314;11.562;2022-08-20T12:54:49;11.20;;;1.80;;
1955;SDS011;978;48.314;11.562;2022-08-20T12:57:21;11.20;;;2.00;;
1955;SDS011;978;48.314;11.562;2022-08-20T12:59:50;11.30;;;2.00;;
1955;SDS011;978;48.314;11.562;2022-08-20T13:02:18;11.20;;;1.77;;
1955;SDS011;978;48.314;11.562;2022-08-20T13:04:47;11.80;;;1.90;;
1955;SDS011;978;48.314;11.562;2022-08-20T13:07:16;11.17;;;1.80;;
1955;SDS011;978;48.314;11.562;2022-08-20T13:09:45;11.67;;;2.13;;
1955;SDS011;978;48.314;11.562;2022-08-20T13:12:13;11.60;;;2.10;;
1955;SDS011;978;48.314;11.562;2022-08-20T13:14:41;11.27;;;1.70;;
1955;SDS011;978;48.314;11.562;2022-08-20T13:17:08;11.90;;;2.20;;
1955;SDS011;978;48.314;11.562;2022-08-20T13:19:36;11.97;;;2.00;;
1955;SDS011;978;48.314;11.562;2022-08-20T13:22:04;12.03;;;1.97;;
1955;SDS011;978;48.314;11.562;2022-08-20T13:24:31;11.83;;;1.80;;
1955;SDS011;978;48.314;11.562;2022-08-20T13:27:05;11.50;;;1.80;;
1955;SDS011;978;48.314;11.562;2022-08-20T13:29:35;12.23;;;2.40;;
1955;SDS011;978;48.314;11.562;2022-08-20T13:32:02;12.00;;;2.10;;
1955;SDS011;978;48.314;11.562;2022-08-20T13:34:30;11.00;;;2.13;;
1955;SDS011;978;48.314;11.562;2022-08-20T13:36:57;11.50;;;2.13;;
1955;SDS011;978;48.314;11.562;2022-08-20T13:39:25;11.30;;;1.83;;
1955;SDS011;978;48.314;11.562;2022-08-20T13:41:53;11.80;;;1.93;;
1955;SDS011;978;48.314;11.562;2022-08-20T13:44:21;11.00;;;1.90;;
1955;SDS011;978;48.314;11.562;2022-08-20T13:46:50;10.90;;;1.80;;
1955;SDS011;978;48.314;11.562;2022-08-20T13:49:19;11.60;;;1.80;;
1955;SDS011;978;48.314;11.562;2022-08-20T13:51:47;11.53;;;1.97;;
1955;SDS011;978;48.314;11.562;2022-08-20T13:54:14;15.23;;;2.20;;
1955;SDS011;978;48.314;11.562;2022-08-20T13:56:41;11.20;;;1.70;;
1955;SDS011;978;48.314;11.562;2022-08-20T13:59:07;11.30;;;1.73;;
1955;SDS011;978;48.314;11.562;2022-08-20T14:01:34;11.50;;;1.70;;
1955;SDS011;978;48.314;11.562;2022-08-20T14:04:02;11.60;;;2.30;;
1955;SDS011;978;48.314;11.562;2022-08-20T14:06:29;12.00;;;2.07;;
1955;SDS011;978;48.314;11.562;2022-08-20T14:08:56;11.30;;;1.90;;
1955;SDS011;978;48.314;11.562;2022-08-20T14:11:24;11.10;;;1.80;;
1955;SDS011;978;48.314;11.562;2022-08-20T14:13:52;10.83;;;1.70;;
1955;SDS011;978;48.314;11.562;2022-08-20T14:16:20;11.47;;;2.23;;
1955;SDS011;978;48.314;11.562;2022-08-20T14:18:48;11.77;;;2.40;;
1955;SDS011;978;48.314;11.562;2022-08-20T14:21:16;10.80;;;1.77;;
1955;SDS011;978;48.314;11.562;2022-08-20T14:23:45;11.13;;;1.70;;
1955;SDS011;978;48.314;11.562;2022-08-20T14:26:12;11.47;;;1.90;;
1955;SDS011;978;48.314;11.562;2022-08-20T14:28:39;11.27;;;1.57;;
1955;SDS011;978;48.314;11.562;2022-08-20T14:31:06;10.97;;;1.50;;
1955;SDS011;978;48.314;11.562;2022-08-20T14:33:32;10.90;;;1.63;;
1955;SDS011;978;48.314;11.562;2022-08-20T14:35:59;11.07;;;1.57;;
1955;SDS011;978;48.314;11.562;2022-08-20T14:38:28;11.13;;;1.70;;
1955;SDS011;978;48.314;11.562;2022-08-20T14:40:56;11.30;;;1.70;;
1955;SDS011;978;48.314;11.562;2022-08-20T14:43:24;11.17;;;2.00;;
1955;SDS011;978;48.314;11.562;2022-08-20T14:45:52;11.13;;;1.73;;
1955;SDS011;978;48.314;11.562;2022-08-20T14:48:20;10.97;;;1.77;;
1955;SDS011;978;48.314;11.562;2022-08-20T14:50:50;11.23;;;1.73;;
1955;SDS011;978;48.314;11.562;2022-08-20T14:53:20;11.07;;;1.87;;
1955;SDS011;978;48.314;11.562;2022-08-20T14:55:48;10.97;;;1.70;;
1955;SDS011;978;48.314;11.562;2022-08-20T14:58:17;11.43;;;2.10;;
1955;SDS011;978;48.314;11.562;2022-08-20T15:00:45;10.90;;;1.40;;
1955;SDS011;978;48.314;11.562;2022-08-20T15:03:12;11.20;;;2.07;;
1955;SDS011;978;48.314;11.562;2022-08-20T15:05:38;10.70;;;1.60;;
1955;SDS011;978;48.314;11.562;2022-08-20T15:08:05;10.63;;;1.50;;
1955;SDS011;978;48.314;11.562;2022-08-20T15:10:34;11.17;;;2.30;;
1955;SDS011;978;48.314;11.562;2022-08-20T15:13:02;11.07;;;1.83;;
1955;SDS011;978;48.314;11.562;2022-08-20T15:15:30;10.80;;;1.43;;
1955;SDS011;978;48.314;11.562;2022-08-20T15:17:58;12.67;;;2.10;;